CRE409 KOPF-KRVJ
Flight info
| Callsign | CRE409 |
|---|---|
| Flight time | N/A |
| Altitude | 41000 |
| Route | ALTNN2 DUCEN Q87 VIYAP |
| Aircraft | C25C/M-SDE2E3FGHRWXY/LB1 |
Departure
| Time | 2026-04-18 21:43 |
|---|---|
| Airport | Miami-Opa Locka Executive Airport (KOPF) |
Arrival
| Time | N/A |
|---|---|
| Airport | Swinton Smith Field at Reidsville Municipal Airport (KRVJ) |
| Time | Latitude | Longitude | Altitude | Speed | Heading |
|---|---|---|---|---|---|
| 2026-04-18 21:37 | 25.90261 | -80.26934 | 10 ft | 0 kts | 152° |
| 2026-04-18 21:37 | 25.90260 | -80.26933 | 10 ft | 3 kts | 152° |
| 2026-04-18 21:38 | 25.90222 | -80.26938 | 10 ft | 8 kts | 231° |
| 2026-04-18 21:38 | 25.90200 | -80.27010 | 10 ft | 11 kts | 252° |
| 2026-04-18 21:38 | 25.90196 | -80.27104 | 10 ft | 14 kts | 297° |
| 2026-04-18 21:38 | 25.90252 | -80.27206 | 10 ft | 17 kts | 301° |
| 2026-04-18 21:39 | 25.90320 | -80.27328 | 10 ft | 20 kts | 302° |
| 2026-04-18 21:39 | 25.90398 | -80.27467 | 10 ft | 23 kts | 302° |
| 2026-04-18 21:39 | 25.90484 | -80.27619 | 10 ft | 23 kts | 302° |
| 2026-04-18 21:39 | 25.90574 | -80.27780 | 10 ft | 26 kts | 302° |
| 2026-04-18 21:40 | 25.90671 | -80.27952 | 10 ft | 27 kts | 302° |
| 2026-04-18 21:40 | 25.90761 | -80.28111 | 10 ft | 24 kts | 302° |
| 2026-04-18 21:40 | 25.90853 | -80.28276 | 10 ft | 26 kts | 302° |
| 2026-04-18 21:40 | 25.90953 | -80.28453 | 10 ft | 27 kts | 302° |
| 2026-04-18 21:41 | 25.91050 | -80.28626 | 10 ft | 25 kts | 302° |
| 2026-04-18 21:41 | 25.91120 | -80.28750 | 10 ft | 13 kts | 303° |
| 2026-04-18 21:41 | 25.91149 | -80.28833 | 11 ft | 11 kts | 329° |
| 2026-04-18 21:41 | 25.91222 | -80.28842 | 12 ft | 10 kts | 355° |
| 2026-04-18 21:42 | 25.91268 | -80.28812 | 12 ft | 11 kts | 89° |
| 2026-04-18 21:42 | 25.91284 | -80.28479 | 10 ft | 90 kts | 86° |
| 2026-04-18 21:42 | 25.91340 | -80.27459 | 182 ft | 163 kts | 89° |
| 2026-04-18 21:42 | 25.91404 | -80.26504 | 531 ft | 205 kts | 86° |
| 2026-04-18 21:43 | 25.91549 | -80.24742 | 1186 ft | 252 kts | 86° |
| 2026-04-18 21:43 | 25.91699 | -80.22796 | 2299 ft | 247 kts | 86° |
| 2026-04-18 21:43 | 25.91841 | -80.20873 | 3335 ft | 251 kts | 86° |
| 2026-04-18 21:43 | 25.92045 | -80.18942 | 4880 ft | 256 kts | 72° |
| 2026-04-18 21:44 | 25.93119 | -80.17362 | 6285 ft | 265 kts | 31° |
| 2026-04-18 21:44 | 25.94860 | -80.16790 | 7649 ft | 268 kts | 3° |
| 2026-04-18 21:44 | 25.96728 | -80.16973 | 9057 ft | 273 kts | 347° |
| 2026-04-18 21:44 | 25.98611 | -80.17428 | 10350 ft | 281 kts | 349° |
| 2026-04-18 21:45 | 26.00639 | -80.17781 | 11117 ft | 310 kts | 353° |
| 2026-04-18 21:45 | 26.02853 | -80.18032 | 12204 ft | 313 kts | 354° |
| 2026-04-18 21:45 | 26.05026 | -80.18300 | 13573 ft | 320 kts | 352° |
| 2026-04-18 21:45 | 26.07255 | -80.18648 | 14637 ft | 326 kts | 352° |
| 2026-04-18 21:46 | 26.09554 | -80.18956 | 15746 ft | 331 kts | 353° |
| 2026-04-18 21:46 | 26.11323 | -80.19174 | 16585 ft | 335 kts | 353° |
| 2026-04-18 21:46 | 26.13682 | -80.19503 | 17685 ft | 341 kts | 352° |
| 2026-04-18 21:46 | 26.16053 | -80.19841 | 18706 ft | 346 kts | 353° |
| 2026-04-18 21:47 | 26.18462 | -80.20150 | 19669 ft | 350 kts | 353° |
| 2026-04-18 21:47 | 26.20900 | -80.20481 | 20628 ft | 355 kts | 352° |
| 2026-04-18 21:47 | 26.23364 | -80.20834 | 21585 ft | 360 kts | 352° |
| 2026-04-18 21:47 | 26.25871 | -80.21171 | 22537 ft | 365 kts | 352° |
| 2026-04-18 21:48 | 26.27554 | -80.21388 | 23164 ft | 368 kts | 352° |
| 2026-04-18 21:49 | 26.29478 | -80.21651 | 23816 ft | 372 kts | 352° |
| 2026-04-18 21:49 | 26.32077 | -80.22021 | 24644 ft | 375 kts | 351° |
| 2026-04-18 21:49 | 26.34576 | -80.22348 | 25432 ft | 377 kts | 351° |
| 2026-04-18 21:49 | 26.37189 | -80.22701 | 26219 ft | 379 kts | 351° |
| 2026-04-18 21:50 | 26.39831 | -80.22971 | 26975 ft | 382 kts | 353° |
| 2026-04-18 21:50 | 26.42483 | -80.23239 | 27715 ft | 384 kts | 351° |
| 2026-04-18 21:50 | 26.45152 | -80.23565 | 28407 ft | 387 kts | 351° |
| 2026-04-18 21:50 | 26.47790 | -80.23827 | 29253 ft | 385 kts | 352° |
| 2026-04-18 21:51 | 26.50448 | -80.24070 | 30212 ft | 381 kts | 351° |
| 2026-04-18 21:51 | 26.53064 | -80.24357 | 31010 ft | 376 kts | 351° |
| 2026-04-18 21:51 | 26.55656 | -80.24634 | 31809 ft | 372 kts | 351° |
| 2026-04-18 21:51 | 26.58226 | -80.25025 | 32598 ft | 366 kts | 347° |
| 2026-04-18 21:52 | 26.60727 | -80.25464 | 33382 ft | 362 kts | 348° |
| 2026-04-18 21:52 | 26.63212 | -80.25840 | 34134 ft | 358 kts | 348° |
| 2026-04-18 21:52 | 26.65657 | -80.26242 | 34756 ft | 355 kts | 347° |
| 2026-04-18 21:52 | 26.68090 | -80.26664 | 35341 ft | 353 kts | 347° |